Time;durP1;ratioP1;P1;durP2;ratioP2;P2;SDS_P1;SDS_P2;PMS_P1;PMS_P2;Temp;Humidity;BMP_temperature;BMP_pressure;BME280_temperature;BME280_humidity;BME280_pressure;Samples;Min_cycle;Max_cycle;Signal;HPM_P1;HPM_P2
2022/05/06 00:00:12;;;;;;;4.42;3.15;;;;;;;2.73;72.44;101853.30;1749838;82;21146;-41
2022/05/06 00:02:40;;;;;;;10.38;3.05;;;;;;;2.71;73.45;101853.66;1749646;80;20956;-41
2022/05/06 00:05:08;;;;;;;4.20;2.80;;;;;;;2.67;73.16;101853.09;1749952;82;20932;-41
2022/05/06 00:07:35;;;;;;;7.42;3.00;;;;;;;2.62;72.88;101859.30;1749784;82;20940;-41
2022/05/06 00:10:04;;;;;;;2.47;2.27;;;;;;;2.56;72.78;101866.33;1750040;82;20865;-41
2022/05/06 00:12:32;;;;;;;5.47;2.70;;;;;;;2.53;72.50;101871.33;1723106;82;21876;-41
2022/05/06 00:14:59;;;;;;;10.65;3.20;;;;;;;2.53;72.08;101873.89;1749973;82;20936;-41
2022/05/06 00:17:25;;;;;;;3.33;2.50;;;;;;;2.55;71.88;101877.37;1749918;81;20901;-41
2022/05/06 00:19:52;;;;;;;7.10;2.85;;;;;;;2.52;71.59;101873.42;1750023;82;20893;-41
2022/05/06 00:22:19;;;;;;;3.90;3.10;;;;;;;2.48;71.00;101874.13;1749934;81;20889;-41
2022/05/06 00:24:45;;;;;;;6.22;3.05;;;;;;;2.46;70.80;101878.31;1750076;82;21107;-41
2022/05/06 00:27:13;;;;;;;5.80;3.20;;;;;;;2.43;71.05;101890.98;1749924;82;20972;-42
2022/05/06 00:29:39;;;;;;;9.13;2.67;;;;;;;2.39;71.34;101887.82;1750048;82;20992;-42
2022/05/06 00:32:07;;;;;;;9.30;2.70;;;;;;;2.41;73.46;101898.58;1750070;82;20968;-41
2022/05/06 00:34:34;;;;;;;3.80;2.70;;;;;;;2.40;75.11;101901.06;1722867;82;21028;-42
2022/05/06 00:37:00;;;;;;;3.98;2.65;;;;;;;2.37;76.81;101900.56;1750208;80;21336;-42
2022/05/06 00:39:27;;;;;;;7.87;2.52;;;;;;;2.38;77.69;101901.02;1750032;82;20936;-42
2022/05/06 00:41:55;;;;;;;3.25;2.95;;;;;;;2.35;77.82;101902.58;1749933;82;20889;-42
2022/05/06 00:44:25;;;;;;;5.25;2.90;;;;;;;2.29;78.10;101901.53;1749993;82;21390;-42
2022/05/06 00:46:55;;;;;;;6.87;2.98;;;;;;;2.20;78.32;101903.74;1749827;81;20975;-41
2022/05/06 00:49:21;;;;;;;8.50;2.87;;;;;;;2.13;78.31;101904.29;1723165;82;22054;-42
2022/05/06 00:51:51;;;;;;;8.10;3.30;;;;;;;2.07;78.65;101905.33;1750073;82;21399;-41
2022/05/06 00:54:20;;;;;;;6.08;2.70;;;;;;;2.05;78.92;101909.51;1750075;82;20941;-42
2022/05/06 00:56:46;;;;;;;5.42;3.02;;;;;;;2.00;78.97;101910.59;1749945;82;20924;-42
2022/05/06 00:59:14;;;;;;;6.03;2.77;;;;;;;1.94;79.32;101910.35;1749749;82;20952;-42
2022/05/06 01:01:40;;;;;;;8.60;3.08;;;;;;;1.89;79.66;101906.33;1749857;82;21245;-42
2022/05/06 01:04:07;;;;;;;5.35;2.80;;;;;;;1.82;79.71;101907.78;1750009;82;20980;-41
2022/05/06 01:06:35;;;;;;;6.40;2.98;;;;;;;1.80;79.95;101907.23;1750235;82;20956;-42
2022/05/06 01:09:03;;;;;;;7.37;2.92;;;;;;;1.76;79.95;101911.34;1749842;82;20881;-41
2022/05/06 01:11:31;;;;;;;3.62;3.25;;;;;;;1.69;80.02;101911.52;1739094;82;20940;-42
2022/05/06 01:13:59;;;;;;;7.35;2.80;;;;;;;1.66;80.10;101910.50;1739472;82;21259;-41
2022/05/06 01:16:34;;;;;;;7.80;2.77;;;;;;;1.59;80.34;101911.92;1749524;82;20987;-42
2022/05/06 01:19:02;;;;;;;4.90;2.80;;;;;;;1.52;80.59;101915.03;1749519;82;21000;-41
2022/05/06 01:21:39;;;;;;;4.95;2.65;;;;;;;1.43;80.93;101924.05;1722516;82;20932;-41
2022/05/06 01:24:06;;;;;;;;;;;;;;;1.35;81.46;101915.17;1721138;82;20920;-42
2022/05/06 01:26:56;;;;;;;7.87;3.05;;;;;;;1.32;82.11;101924.39;1746269;82;21228;-42
2022/05/06 01:29:23;;;;;;;5.15;2.77;;;;;;;1.31;82.68;101926.48;1744556;81;21537;-42
2022/05/06 01:31:52;;;;;;;10.08;2.77;;;;;;;1.27;83.23;101924.19;1746247;82;21015;-41
2022/05/06 01:34:20;;;;;;;8.75;2.75;;;;;;;1.22;83.86;101926.53;1746113;80;21387;-41
2022/05/06 01:36:50;;;;;;;3.05;2.65;;;;;;;1.18;84.41;101931.03;1746192;82;21407;-42
2022/05/06 01:39:18;;;;;;;4.08;2.45;;;;;;;1.13;84.89;101923.58;1746135;82;21258;-41
2022/05/06 01:41:46;;;;;;;7.62;2.83;;;;;;;1.10;85.47;101926.86;1746120;81;20917;-42
2022/05/06 01:44:16;;;;;;;10.82;2.85;;;;;;;1.09;86.05;101930.64;1746246;82;20932;-42
2022/05/06 01:46:44;;;;;;;8.78;3.02;;;;;;;1.07;86.66;101937.35;1746157;81;21020;-41
2022/05/06 01:49:12;;;;;;;3.67;2.70;;;;;;;1.04;87.09;101940.62;1744765;82;20901;-42
2022/05/06 01:51:42;;;;;;;6.45;3.22;;;;;;;1.02;87.58;101940.11;1745977;82;21099;-42
2022/05/06 01:54:12;;;;;;;9.05;3.10;;;;;;;1.00;88.05;101946.40;1746295;82;21007;-41
2022/05/06 01:56:41;;;;;;;4.35;2.95;;;;;;;0.97;88.37;101942.02;1746101;80;21577;-42
2022/05/06 01:59:08;;;;;;;3.40;2.90;;;;;;;0.93;88.65;101941.84;1746167;82;21010;-42
2022/05/06 02:01:35;;;;;;;3.90;2.60;;;;;;;0.90;88.98;101947.66;1746272;82;20870;-42
2022/05/06 02:06:49;;;;;;;10.40;2.83;;;;;;;0.89;90.14;101952.70;1746038;82;20995;-40
2022/05/06 02:09:18;;;;;;;4.28;2.98;;;;;;;0.88;90.67;101950.55;1745861;82;21056;-41
2022/05/06 02:11:46;;;;;;;9.45;2.90;;;;;;;0.86;90.86;101954.70;1745221;82;20971;-41
2022/05/06 02:14:13;;;;;;;5.20;2.98;;;;;;;0.83;91.21;101959.25;1746160;82;21027;-42
2022/05/06 02:16:45;;;;;;;6.53;2.77;;;;;;;0.83;91.40;101957.97;1742724;82;21307;-41
2022/05/06 02:19:26;;;;;;;5.58;2.60;;;;;;;0.80;91.31;101959.11;1743457;82;20936;-41
2022/05/06 02:21:56;;;;;;;5.80;2.37;;;;;;;0.77;91.30;101962.80;1744539;82;21032;-41
2022/05/06 02:24:42;;;;;;;3.87;2.05;;;;;;;0.71;91.28;101968.48;1749265;81;20928;-41
2022/05/06 02:27:12;;;;;;;3.70;2.77;;;;;;;0.68;91.81;101975.13;1747644;82;21097;-41
2022/05/06 02:33:12;;;;;;;6.67;3.10;;;;;;;0.66;92.37;101980.56;1749888;82;20984;-41
2022/05/06 02:34:57;;;;;;;7.08;2.85;;;;;;;0.65;92.76;101981.37;1750127;82;20976;-42
2022/05/06 02:37:23;;;;;;;10.05;2.58;;;;;;;0.63;92.74;101981.66;1749787;82;20929;-41
2022/05/06 02:39:51;;;;;;;3.02;2.60;;;;;;;0.60;92.74;101985.34;1749616;82;20922;-41
2022/05/06 02:42:19;;;;;;;5.70;2.70;;;;;;;0.53;92.91;101986.34;1749734;81;21985;-42
2022/05/06 02:44:48;;;;;;;7.17;3.10;;;;;;;0.55;93.50;101990.25;1749627;82;21011;-41
2022/05/06 02:47:15;;;;;;;9.60;4.83;;;;;;;0.55;93.77;101991.52;1722477;82;20998;-41
2022/05/06 02:49:42;;;;;;;8.40;3.77;;;;;;;0.59;94.12;101995.07;1749866;80;21447;-42
2022/05/06 02:52:11;;;;;;;8.53;4.40;;;;;;;0.61;94.29;101993.08;1749901;81;20909;-41
2022/05/06 02:54:38;;;;;;;9.48;3.58;;;;;;;0.62;94.36;101992.66;1749907;82;21148;-41
2022/05/06 02:57:06;;;;;;;13.43;3.60;;;;;;;0.65;94.58;101991.56;1749750;82;20909;-42
2022/05/06 02:59:33;;;;;;;6.20;4.03;;;;;;;0.69;94.97;101996.00;1749869;82;20952;-42
2022/05/06 03:01:59;;;;;;;9.55;4.08;;;;;;;0.76;95.32;101994.20;1749858;80;20932;-42
2022/05/06 03:04:26;;;;;;;7.33;3.87;;;;;;;0.82;95.67;101993.20;1749901;82;20936;-42
2022/05/06 03:06:53;;;;;;;8.60;3.90;;;;;;;0.92;95.97;101996.20;1722536;82;21270;-42
2022/05/06 03:09:25;;;;;;;6.83;3.98;;;;;;;1.03;96.31;102000.09;1748565;82;20889;-42
2022/05/06 03:11:52;;;;;;;13.25;4.10;;;;;;;1.13;96.66;101999.70;1749772;82;20921;-42
2022/05/06 03:14:20;;;;;;;3.40;3.05;;;;;;;1.23;96.87;101990.78;1749734;82;20932;-41
2022/05/06 03:16:52;;;;;;;12.65;3.30;;;;;;;1.35;97.12;102004.91;1747781;82;20956;-42
2022/05/06 03:19:19;;;;;;;7.28;3.47;;;;;;;1.48;97.20;102002.49;1749818;82;21250;-41
2022/05/06 03:21:51;;;;;;;4.28;3.17;;;;;;;1.61;97.21;102000.07;1722173;82;21506;-41
2022/05/06 03:24:20;;;;;;;11.50;3.05;;;;;;;1.73;97.13;102008.24;1742274;81;20969;-41
2022/05/06 03:26:46;;;;;;;17.10;6.97;;;;;;;1.84;96.98;102006.15;1735863;82;20973;-42
2022/05/06 03:29:13;;;;;;;24.25;9.00;;;;;;;1.94;96.91;102013.41;1735911;81;20973;-42
2022/05/06 03:31:39;;;;;;;23.90;10.58;;;;;;;2.05;96.51;102010.03;1735846;82;22027;-42
2022/05/06 03:34:08;;;;;;;22.77;9.33;;;;;;;2.17;96.23;102012.61;1735719;82;21483;-42
2022/05/06 03:36:36;;;;;;;16.07;7.30;;;;;;;2.33;95.73;102020.11;1735237;82;20963;-42
2022/05/06 03:39:04;;;;;;;12.93;5.47;;;;;;;2.47;95.00;102016.83;1735759;82;21570;-42
2022/05/06 03:41:33;;;;;;;13.58;4.53;;;;;;;2.73;94.10;102019.53;1735557;82;21047;-42
2022/05/06 03:44:00;;;;;;;8.25;5.37;;;;;;;3.06;92.88;102018.22;1735853;82;21154;-42
2022/05/06 03:46:26;;;;;;;12.10;5.22;;;;;;;3.44;90.25;102018.34;1736008;82;20928;-42
2022/05/06 03:48:55;;;;;;;9.33;4.17;;;;;;;3.86;88.11;102021.08;1736009;82;20850;-42
2022/05/06 03:51:22;;;;;;;11.60;5.15;;;;;;;4.26;85.15;102020.27;1735957;82;21028;-42
2022/05/06 03:53:54;;;;;;;10.70;5.47;;;;;;;4.66;80.93;102024.91;1735762;82;20932;-42
2022/05/06 03:56:25;;;;;;;12.53;5.47;;;;;;;5.04;78.36;102021.36;1735673;82;21237;-42
2022/05/06 03:58:52;;;;;;;12.43;5.67;;;;;;;5.44;75.89;102021.64;1714886;82;21033;-42
2022/05/06 04:01:19;;;;;;;16.42;4.50;;;;;;;5.80;73.13;102020.02;1736065;82;20914;-42
2022/05/06 04:03:47;;;;;;;10.68;4.33;;;;;;;6.18;71.50;102026.18;1735642;82;20929;-43
2022/05/06 04:06:15;;;;;;;5.30;3.42;;;;;;;6.53;67.75;102028.27;1736063;82;21008;-42
2022/05/06 04:08:44;;;;;;;12.35;3.80;;;;;;;6.87;66.80;102024.77;1735958;82;21019;-42
2022/05/06 04:11:13;;;;;;;11.12;3.87;;;;;;;7.23;64.47;102029.39;1735942;82;20952;-42
2022/05/06 04:13:41;;;;;;;9.95;3.62;;;;;;;7.51;62.39;102021.35;1735983;82;20897;-43
2022/05/06 04:16:08;;;;;;;13.18;4.40;;;;;;;7.79;60.80;102022.72;1735787;82;20933;-42
2022/05/06 04:18:35;;;;;;;8.55;4.35;;;;;;;8.11;59.55;102022.44;1736024;82;20980;-41
2022/05/06 04:23:47;;;;;;;6.53;4.40;;;;;;;8.68;57.03;102024.18;1735992;81;20992;-42
2022/05/06 04:26:15;;;;;;;16.93;6.10;;;;;;;9.01;54.88;102024.23;1736020;82;21529;-43
2022/05/06 04:28:44;;;;;;;14.60;4.45;;;;;;;9.15;52.35;102030.42;1735315;82;20968;-43
2022/05/06 04:31:11;;;;;;;35.55;5.70;;;;;;;9.28;52.19;102032.73;1735951;82;20928;-43
2022/05/06 04:33:40;;;;;;;14.13;5.05;;;;;;;9.42;51.58;102038.06;1735997;81;21922;-43
2022/05/06 04:36:09;;;;;;;19.02;6.65;;;;;;;9.64;50.97;102031.84;1736239;82;20969;-43
2022/05/06 04:38:37;;;;;;;15.60;6.45;;;;;;;9.82;48.24;102029.02;1735993;82;20980;-43
2022/05/06 04:41:04;;;;;;;21.87;6.65;;;;;;;9.93;46.56;102024.80;1735898;82;20874;-43
2022/05/06 04:43:33;;;;;;;15.93;6.30;;;;;;;9.99;45.78;102027.47;1735986;81;20988;-43
2022/05/06 04:46:00;;;;;;;16.55;6.60;;;;;;;10.06;44.24;102036.13;1735918;82;21147;-43
2022/05/06 04:48:29;;;;;;;22.98;8.28;;;;;;;10.20;44.21;102034.95;1735860;82;20926;-43
2022/05/06 04:50:56;;;;;;;15.43;7.00;;;;;;;10.29;42.64;102032.45;1736309;82;20976;-43
2022/05/06 04:53:24;;;;;;;16.40;6.90;;;;;;;10.37;42.73;102035.52;1735943;82;21474;-43
2022/05/06 04:55:50;;;;;;;18.25;7.20;;;;;;;10.47;41.84;102033.45;1735896;82;21598;-43
2022/05/06 04:58:19;;;;;;;13.08;6.35;;;;;;;10.47;41.32;102033.05;1735942;81;21176;-43
2022/05/06 05:00:46;;;;;;;15.40;6.37;;;;;;;10.49;41.18;102030.48;1735890;82;20944;-43
2022/05/06 05:03:13;;;;;;;12.93;6.30;;;;;;;10.57;41.88;102033.98;1735730;82;20901;-41
2022/05/06 05:05:40;;;;;;;13.80;6.03;;;;;;;10.69;41.22;102033.61;1735846;81;20894;-42
2022/05/06 05:08:09;;;;;;;16.23;6.22;;;;;;;10.74;39.46;102026.76;1735939;81;20957;-42
2022/05/06 05:10:37;;;;;;;22.82;6.45;;;;;;;10.69;40.67;102027.13;1735766;82;21103;-42
2022/05/06 05:13:07;;;;;;;14.43;5.67;;;;;;;10.73;39.96;102031.47;1735966;82;21027;-43
2022/05/06 05:15:35;;;;;;;16.75;5.95;;;;;;;10.76;39.94;102027.63;1735791;82;20984;-43
2022/05/06 05:18:03;;;;;;;11.33;5.28;;;;;;;10.81;40.53;102028.93;1736019;82;20929;-43
2022/05/06 05:20:32;;;;;;;10.95;5.10;;;;;;;10.97;40.09;102028.58;1735919;81;20885;-43
2022/05/06 05:23:00;;;;;;;12.65;4.97;;;;;;;11.01;40.22;102036.83;1735972;82;21107;-43
2022/05/06 05:25:27;;;;;;;13.62;5.67;;;;;;;11.15;40.92;102026.08;1735794;81;20838;-43
2022/05/06 05:27:55;;;;;;;13.53;5.45;;;;;;;11.41;41.16;102020.58;1735963;82;20977;-43
2022/05/06 05:30:25;;;;;;;16.55;5.05;;;;;;;11.71;40.60;102015.02;1708662;82;20975;-43
2022/05/06 05:32:53;;;;;;;15.65;5.55;;;;;;;11.95;39.86;102017.21;1735902;81;20945;-43
2022/05/06 05:35:20;;;;;;;12.45;5.15;;;;;;;12.17;38.71;102022.87;1736344;82;21234;-43
2022/05/06 05:37:48;;;;;;;16.62;5.10;;;;;;;12.18;38.49;102030.21;1735295;82;20933;-43
2022/05/06 05:40:15;;;;;;;18.65;5.25;;;;;;;12.18;39.01;102034.11;1735962;82;21008;-41
2022/05/06 05:42:42;;;;;;;20.75;5.78;;;;;;;12.28;38.88;102025.47;1735714;82;20850;-42
2022/05/06 05:50:37;;;;;;;17.80;4.92;;;;;;;12.71;37.35;102032.75;1709394;82;21076;-41
2022/05/06 05:53:05;;;;;;;15.65;4.67;;;;;;;12.72;36.70;102030.16;1735877;82;21012;-41
2022/05/06 05:55:34;;;;;;;14.13;4.55;;;;;;;12.66;36.78;102027.58;1735937;82;21015;-42
2022/05/06 05:58:02;;;;;;;14.25;5.03;;;;;;;12.72;37.33;102033.18;1735870;82;22196;-42
2022/05/06 06:00:29;;;;;;;12.13;5.40;;;;;;;12.84;37.58;102027.09;1735802;81;22388;-42
2022/05/06 06:02:57;;;;;;;18.67;4.70;;;;;;;13.01;37.45;102033.11;1735717;81;21468;-43
2022/05/06 06:05:24;;;;;;;9.28;4.50;;;;;;;13.08;36.02;102026.16;1735803;82;21016;-42
2022/05/06 06:07:51;;;;;;;20.95;5.37;;;;;;;13.17;36.48;102031.77;1735813;82;20945;-42
2022/05/06 06:10:20;;;;;;;7.42;4.42;;;;;;;13.26;36.24;102022.61;1735903;82;21041;-43
2022/05/06 06:12:47;;;;;;;14.35;4.70;;;;;;;13.36;35.98;102024.27;1735998;82;21131;-42
2022/05/06 06:15:15;;;;;;;10.60;4.80;;;;;;;13.43;34.98;102017.34;1735869;81;20977;-43
2022/05/06 06:17:42;;;;;;;14.83;4.45;;;;;;;13.40;35.60;102016.03;1735858;82;20897;-42
2022/05/06 06:20:11;;;;;;;20.15;5.60;;;;;;;13.56;34.39;102024.64;1735990;82;21423;-42
2022/05/06 06:22:46;;;;;;;;;;;;;;;13.56;34.56;102012.94;1741785;81;20973;-43
2022/05/06 06:25:14;;;;;;;16.20;4.97;;;;;;;13.54;35.08;102021.64;1742732;81;21148;-43
2022/05/06 06:27:41;;;;;;;20.92;4.87;;;;;;;13.60;34.63;102015.09;1749848;82;20983;-44
2022/05/06 06:30:11;;;;;;;14.47;4.62;;;;;;;13.65;34.37;102012.02;1749708;81;21048;-42
2022/05/06 06:32:38;;;;;;;16.27;4.97;;;;;;;13.60;34.21;102017.70;1722427;82;21395;-42
2022/05/06 06:35:07;;;;;;;10.30;5.12;;;;;;;13.65;34.68;102023.30;1749764;81;20928;-43
2022/05/06 06:37:35;;;;;;;11.22;4.47;;;;;;;13.76;33.82;102019.30;1722058;82;21111;-44
2022/05/06 06:40:03;;;;;;;9.60;4.22;;;;;;;13.83;34.46;102024.48;1749634;82;21376;-44
2022/05/06 06:42:30;;;;;;;9.70;4.28;;;;;;;13.97;34.47;102025.23;1722658;82;20889;-42
2022/05/06 06:45:06;;;;;;;8.75;3.90;;;;;;;14.16;34.52;102021.19;1721841;82;20924;-43
2022/05/06 06:47:53;;;;;;;8.93;3.22;;;;;;;14.35;34.36;102024.48;1749220;82;21526;-44
2022/05/06 06:50:23;;;;;;;16.10;3.52;;;;;;;14.40;32.54;102029.66;1747787;82;21003;-44
2022/05/06 06:53:05;;;;;;;8.58;3.72;;;;;;;14.32;31.85;102022.78;1747476;82;20936;-44
2022/05/06 06:55:31;;;;;;;4.55;2.37;;;;;;;14.13;32.46;102025.12;1749773;82;20928;-42
2022/05/06 06:57:59;;;;;;;5.45;2.72;;;;;;;14.07;31.30;102020.39;1749821;82;20897;-45
2022/05/06 07:00:25;;;;;;;11.28;3.20;;;;;;;14.16;31.86;102019.46;1749944;82;20940;-45
2022/05/06 07:02:53;;;;;;;10.88;2.35;;;;;;;14.25;31.20;102021.09;1749671;81;21193;-42
2022/05/06 07:05:20;;;;;;;3.00;2.08;;;;;;;14.22;31.23;102018.52;1749690;81;21007;-43
2022/05/06 07:13:17;;;;;;;6.30;2.30;;;;;;;14.60;32.09;102016.42;1749891;82;20968;-43
2022/05/06 07:15:44;;;;;;;8.33;3.70;;;;;;;14.81;31.51;102014.08;1749760;81;21214;-43
2022/05/06 07:18:10;;;;;;;6.92;3.15;;;;;;;15.03;33.44;102013.80;1749842;82;20912;-43
2022/05/06 07:20:38;;;;;;;4.25;3.05;;;;;;;15.27;32.78;102002.20;1749793;82;20881;-43
2022/05/06 07:23:05;;;;;;;4.75;2.65;;;;;;;15.52;32.09;102002.70;1749871;82;20991;-42
2022/05/06 07:25:32;;;;;;;8.75;3.87;;;;;;;15.71;31.49;102001.12;1749863;82;20937;-43
2022/05/06 07:27:58;;;;;;;10.18;2.80;;;;;;;15.90;30.76;102003.02;1749788;82;21230;-43
2022/05/06 07:30:25;;;;;;;8.80;2.98;;;;;;;15.98;30.64;101997.69;1749861;82;20976;-43
2022/05/06 07:32:52;;;;;;;4.30;2.83;;;;;;;16.01;30.81;101998.94;1749950;82;21019;-43
2022/05/06 07:35:20;;;;;;;9.23;2.77;;;;;;;16.05;30.23;101994.53;1749821;81;20968;-43
2022/05/06 07:37:47;;;;;;;4.03;2.92;;;;;;;16.15;29.57;101997.39;1749909;82;20991;-42
2022/05/06 07:41:07;;;;;;;7.42;3.25;;;;;;;16.33;30.97;101995.34;1779637;79;22611;-44
2022/05/06 07:43:34;;;;;;;19.82;2.50;;;;;;;16.48;30.18;101993.77;1749646;81;20885;-43
2022/05/06 07:46:01;;;;;;;4.72;2.20;;;;;;;16.62;30.55;101993.94;1749837;81;21117;-45
2022/05/06 07:48:27;;;;;;;6.95;2.05;;;;;;;16.72;28.76;102006.38;1749720;82;20924;-42
2022/05/06 07:50:54;;;;;;;3.45;1.80;;;;;;;16.62;27.99;102000.04;1749794;80;21467;-43
2022/05/06 07:53:20;;;;;;;10.60;2.17;;;;;;;16.65;28.39;102000.41;1749772;82;21494;-43
2022/05/06 07:55:47;;;;;;;3.00;1.92;;;;;;;16.75;28.14;101995.43;1749722;82;21490;-44
2022/05/06 07:58:14;;;;;;;3.90;1.80;;;;;;;16.85;27.04;102001.34;1749729;82;21101;-44
2022/05/06 08:00:40;;;;;;;11.22;2.45;;;;;;;16.88;28.41;102006.50;1749605;80;21009;-44
2022/05/06 08:05:56;;;;;;;4.95;2.02;;;;;;;16.99;27.33;102008.05;1749757;82;20940;-43
2022/05/06 08:08:20;;;;;;;6.50;2.50;;;;;;;16.97;27.69;102004.58;1749766;82;21494;-43
2022/05/06 08:10:46;;;;;;;5.85;2.40;;;;;;;17.11;27.53;102001.70;1749878;82;21197;-43
2022/05/06 08:13:13;;;;;;;10.38;2.25;;;;;;;17.24;27.15;101994.86;1749726;82;20920;-43
2022/05/06 08:15:39;;;;;;;5.00;2.90;;;;;;;17.39;26.72;101981.03;1749775;82;20963;-43
2022/05/06 08:18:07;;;;;;;2.87;2.27;;;;;;;17.27;26.72;101997.00;1749646;82;20916;-43
2022/05/06 08:20:34;;;;;;;5.95;2.62;;;;;;;17.29;29.33;101994.77;1749727;82;20876;-43
2022/05/06 08:23:01;;;;;;;6.12;2.70;;;;;;;17.49;27.54;101990.38;1749626;81;21495;-43
2022/05/06 08:25:27;;;;;;;3.67;2.85;;;;;;;17.65;27.73;101986.11;1749624;82;20995;-44
2022/05/06 08:27:54;;;;;;;3.70;2.30;;;;;;;17.71;27.09;101994.27;1749836;82;21083;-45
2022/05/06 08:30:21;;;;;;;5.17;2.67;;;;;;;17.61;26.32;101989.23;1749682;82;20940;-44
2022/05/06 08:32:48;;;;;;;13.60;3.00;;;;;;;17.30;28.17;101992.56;1749697;82;20889;-44
2022/05/06 08:35:14;;;;;;;6.55;2.20;;;;;;;17.35;27.30;101984.16;1749906;81;21268;-44
2022/05/06 08:37:46;;;;;;;4.50;1.72;;;;;;;17.45;26.40;101980.88;1749615;82;20940;-43
2022/05/06 08:40:25;;;;;;;7.97;2.75;;;;;;;17.51;25.64;101981.20;1749767;81;20893;-43
2022/05/06 08:42:52;;;;;;;4.05;2.67;;;;;;;17.66;27.29;101979.97;1750441;82;20988;-43
2022/05/06 08:50:52;;;;;;;5.67;2.72;;;;;;;18.53;26.41;101972.52;1750265;82;21019;-45
2022/05/06 08:53:22;;;;;;;11.57;3.17;;;;;;;18.63;26.48;101988.42;1749783;82;21012;-45
2022/05/06 08:55:50;;;;;;;4.95;2.80;;;;;;;18.53;26.97;101978.63;1749889;81;20960;-45
2022/05/06 08:58:17;;;;;;;6.25;2.33;;;;;;;18.49;25.90;101985.30;1750079;82;21003;-44
2022/05/06 09:00:44;;;;;;;4.20;2.20;;;;;;;18.52;25.88;101983.47;1749995;82;21250;-44
2022/05/06 09:03:14;;;;;;;5.22;2.72;;;;;;;18.45;25.12;101980.62;1750099;82;20905;-45
2022/05/06 09:09:41;;;;;;;8.55;2.77;;;;;;;18.88;26.52;101985.09;1749888;82;21487;-44
2022/05/06 09:17:50;;;;;;;9.50;3.58;;;;;;;19.28;26.34;101956.81;1749991;82;21532;-44
2022/05/06 09:20:20;;;;;;;6.42;2.47;;;;;;;19.35;25.46;101954.86;1749880;82;21300;-43
2022/05/06 09:22:48;;;;;;;7.30;2.65;;;;;;;19.59;24.43;101956.30;1749801;82;20944;-43
2022/05/06 09:25:54;;;;;;;8.10;2.40;;;;;;;19.70;23.68;101946.27;1749919;82;21423;-43
2022/05/06 09:28:27;;;;;;;12.68;3.17;;;;;;;19.80;24.99;101958.18;1749888;82;21235;-43
2022/05/06 09:31:10;;;;;;;4.65;2.60;;;;;;;20.01;24.65;101950.98;1749867;82;21007;-44
2022/05/06 09:33:40;;;;;;;3.05;2.20;;;;;;;19.99;24.50;101959.37;1749918;82;21371;-44
2022/05/06 09:36:29;;;;;;;6.17;2.30;;;;;;;19.98;23.68;101964.23;1749846;82;21456;-44
2022/05/06 09:39:10;;;;;;;6.67;2.60;;;;;;;20.04;24.96;101959.59;1749965;82;20917;-44
2022/05/06 09:41:38;;;;;;;7.33;2.98;;;;;;;20.09;23.82;101962.08;1749811;82;21418;-45
2022/05/06 09:44:07;;;;;;;11.75;3.20;;;;;;;19.95;23.51;101960.77;1749876;82;20988;-44
2022/05/06 09:46:34;;;;;;;3.33;2.70;;;;;;;19.84;23.93;101961.57;1749870;82;21480;-44
2022/05/06 09:49:03;;;;;;;5.75;2.30;;;;;;;19.91;24.41;101964.89;1749877;82;20921;-44
2022/05/06 09:51:34;;;;;;;4.53;2.17;;;;;;;19.98;24.87;101965.07;1749931;82;20960;-44
2022/05/06 09:54:07;;;;;;;10.28;2.83;;;;;;;20.08;24.72;101955.11;1749830;82;21281;-44
2022/05/06 09:56:34;;;;;;;8.45;2.77;;;;;;;20.20;24.31;101959.91;1749886;82;21404;-45
2022/05/06 09:59:00;;;;;;;5.42;2.55;;;;;;;20.31;23.07;101949.02;1749861;82;20940;-45
2022/05/06 10:01:27;;;;;;;3.10;2.40;;;;;;;20.37;22.93;101955.39;1749979;82;20928;-43
2022/05/06 10:03:55;;;;;;;5.95;2.65;;;;;;;20.23;23.79;101951.08;1749864;82;20987;-44
2022/05/06 10:06:24;;;;;;;6.20;1.92;;;;;;;20.35;24.75;101951.09;1749974;82;21269;-43
2022/05/06 10:08:55;;;;;;;5.85;2.65;;;;;;;20.54;23.88;101947.33;1749878;82;20920;-43
2022/05/06 10:11:24;;;;;;;7.00;2.60;;;;;;;20.75;24.41;101954.89;1749884;82;21415;-44
2022/05/06 10:13:51;;;;;;;6.78;2.45;;;;;;;20.92;22.32;101954.72;1749814;82;20963;-44
2022/05/06 10:16:17;;;;;;;8.50;2.65;;;;;;;20.90;21.93;101950.84;1750071;82;21379;-44
2022/05/06 10:18:44;;;;;;;10.68;2.62;;;;;;;20.84;22.46;101943.20;1749838;82;21053;-44
2022/05/06 10:21:12;;;;;;;5.30;2.47;;;;;;;20.78;23.42;101953.45;1749833;82;21475;-44
2022/05/06 10:23:52;;;;;;;6.78;2.52;;;;;;;20.78;22.03;101948.64;1749907;80;20936;-45
2022/05/06 10:26:40;;;;;;;4.58;2.83;;;;;;;20.51;23.77;101943.50;1749720;82;20920;-45
2022/05/06 10:32:27;;;;;;;13.28;2.15;;;;;;;20.67;22.99;101938.52;1749910;82;21298;-45
2022/05/06 10:35:05;;;;;;;8.50;2.47;;;;;;;20.95;23.22;101929.16;1749825;80;20932;-44
2022/05/06 10:37:38;;;;;;;7.80;2.58;;;;;;;21.15;22.35;101934.54;1749921;81;20929;-46
2022/05/06 10:40:29;;;;;;;4.30;1.90;;;;;;;21.28;21.23;101930.95;1749045;82;21016;-44
2022/05/06 10:42:55;;;;;;;6.53;2.17;;;;;;;21.31;21.18;101934.33;1749872;82;21073;-43
2022/05/06 10:45:27;;;;;;;6.60;2.95;;;;;;;21.39;20.40;101928.77;1749860;82;21249;-44
2022/05/06 10:47:53;;;;;;;6.70;2.67;;;;;;;21.35;20.93;101918.80;1749794;82;20948;-44
2022/05/06 10:50:22;;;;;;;4.17;2.30;;;;;;;21.06;21.51;101919.52;1749753;82;20995;-43
2022/05/06 10:52:49;;;;;;;7.85;2.83;;;;;;;20.78;22.30;101924.95;1722151;82;20892;-44
2022/05/06 10:55:17;;;;;;;4.28;2.42;;;;;;;20.76;22.85;101924.16;1750020;82;20963;-45
2022/05/06 10:57:52;;;;;;;8.65;2.40;;;;;;;20.91;21.86;101914.41;1749884;82;21000;-44
2022/05/06 11:00:21;;;;;;;8.95;2.65;;;;;;;20.99;23.10;101917.19;1749328;82;21229;-44
2022/05/06 11:02:48;;;;;;;12.63;3.42;;;;;;;21.08;23.27;101908.91;1749836;82;21019;-43
2022/05/06 11:05:16;;;;;;;5.30;2.72;;;;;;;21.30;21.97;101901.47;1749739;82;21491;-44
2022/05/06 11:07:46;;;;;;;6.08;2.40;;;;;;;21.43;22.76;101900.50;1749804;82;20980;-44
2022/05/06 11:10:18;;;;;;;6.92;2.80;;;;;;;21.53;21.86;101906.64;1749796;82;21026;-44
2022/05/06 11:12:53;;;;;;;7.92;2.70;;;;;;;21.54;22.18;101901.77;1749806;81;20929;-43
2022/05/06 11:15:26;;;;;;;4.17;2.62;;;;;;;21.49;22.21;101905.06;1749368;82;21055;-45
2022/05/06 11:17:56;;;;;;;9.63;3.17;;;;;;;21.40;21.47;101906.77;1749572;80;20980;-45
2022/05/06 11:20:27;;;;;;;6.12;2.72;;;;;;;21.28;22.29;101901.55;1749781;82;21483;-45
2022/05/06 11:23:16;;;;;;;9.60;2.62;;;;;;;21.32;22.06;101894.36;1750021;82;21151;-45
2022/05/06 11:25:47;;;;;;;47.30;16.62;;;;;;;21.32;20.77;101896.55;1749744;82;20976;-43
2022/05/06 11:28:20;;;;;;;6.03;3.47;;;;;;;21.28;21.34;101891.02;1749932;82;20956;-44
2022/05/06 11:30:49;;;;;;;9.40;2.92;;;;;;;21.25;23.29;101885.41;1749787;82;20988;-44
2022/05/06 11:33:28;;;;;;;9.00;3.17;;;;;;;21.31;21.17;101871.58;1749568;82;20920;-44
2022/05/06 11:36:03;;;;;;;12.98;3.00;;;;;;;21.25;22.30;101877.50;1749798;82;21138;-44
2022/05/06 11:38:38;;;;;;;5.40;2.92;;;;;;;21.24;22.95;101875.79;1749745;82;21030;-44
2022/05/06 11:41:13;;;;;;;4.55;2.85;;;;;;;21.45;22.74;101870.56;1749763;80;20996;-44
2022/05/06 11:43:41;;;;;;;3.77;2.95;;;;;;;21.27;22.37;101873.95;1749742;82;20936;-43
2022/05/06 11:49:01;;;;;;;8.08;2.90;;;;;;;21.12;21.59;101865.78;1728186;82;22102;-44
2022/05/06 11:51:33;;;;;;;7.00;2.70;;;;;;;21.34;21.82;101859.60;1750295;82;20956;-44
2022/05/06 11:53:59;;;;;;;7.58;2.65;;;;;;;21.30;21.22;101861.97;1750024;81;21018;-44
2022/05/06 11:56:27;;;;;;;5.97;3.08;;;;;;;21.11;21.93;101856.17;1750025;82;21415;-44
2022/05/06 11:58:56;;;;;;;5.92;2.30;;;;;;;21.26;21.55;101857.31;1749919;82;21456;-44
2022/05/06 12:01:32;;;;;;;5.40;2.60;;;;;;;21.34;21.88;101857.84;1749734;82;20978;-44
2022/05/06 12:04:08;;;;;;;4.65;2.35;;;;;;;21.48;21.46;101854.63;1749828;82;21513;-44
2022/05/06 12:06:44;;;;;;;10.33;2.90;;;;;;;21.53;21.74;101835.52;1750113;82;21003;-44
2022/05/06 12:09:16;;;;;;;6.70;2.50;;;;;;;21.53;21.45;101835.52;1749808;82;20939;-44
2022/05/06 12:11:44;;;;;;;5.00;2.77;;;;;;;21.63;20.80;101835.14;1749970;82;21502;-43
2022/05/06 12:14:19;;;;;;;9.40;2.67;;;;;;;21.67;21.20;101831.00;1749797;82;21879;-44
2022/05/06 12:16:59;;;;;;;7.47;2.80;;;;;;;21.80;21.40;101836.58;1749692;82;20885;-43
2022/05/06 12:19:43;;;;;;;3.70;2.80;;;;;;;21.92;21.82;101832.55;1749808;82;20984;-44